createdAt,value
2018-03-17T00:01:29.662Z,15.86
2018-03-17T00:03:55.493Z,15.76
2018-03-17T00:06:21.317Z,15.89
2018-03-17T00:08:47.152Z,15.83
2018-03-17T00:11:12.990Z,15.82
2018-03-17T00:13:39.774Z,15.57
2018-03-17T00:16:05.632Z,15.70
2018-03-17T00:18:31.491Z,15.82
2018-03-17T00:20:58.182Z,15.92
2018-03-17T00:23:24.861Z,15.78
2018-03-17T00:25:51.690Z,15.85
2018-03-17T00:28:18.382Z,15.80
2018-03-17T00:30:45.112Z,15.64
2018-03-17T00:33:10.972Z,15.50
2018-03-17T00:35:36.866Z,15.70
2018-03-17T00:38:03.696Z,15.50
2018-03-17T00:40:29.559Z,15.50
2018-03-17T00:42:56.224Z,15.73
2018-03-17T00:45:22.094Z,15.64
2018-03-17T00:47:48.772Z,15.53
2018-03-17T00:50:14.630Z,15.65
2018-03-17T00:52:40.458Z,15.60
2018-03-17T00:55:06.287Z,15.72
2018-03-17T00:57:33.050Z,15.86
2018-03-17T00:59:58.883Z,15.85
2018-03-17T01:02:24.712Z,15.72
2018-03-17T01:04:50.594Z,15.62
2018-03-17T01:07:16.469Z,15.65
2018-03-17T01:09:42.294Z,15.79
2018-03-17T01:12:09.096Z,15.56
2018-03-17T01:14:34.941Z,15.64
2018-03-17T01:17:01.794Z,15.75
2018-03-17T01:19:28.462Z,15.66
2018-03-17T01:21:54.327Z,15.78
2018-03-17T01:24:21.070Z,15.69
2018-03-17T01:26:46.924Z,15.60
2018-03-17T01:29:13.629Z,15.69
2018-03-17T01:31:40.236Z,15.75
2018-03-17T01:34:06.053Z,15.58
2018-03-17T01:36:32.672Z,15.65
2018-03-17T01:38:59.422Z,15.51
2018-03-17T01:41:25.295Z,15.65
2018-03-17T01:43:51.115Z,15.75
2018-03-17T01:46:17.963Z,15.57
2018-03-17T01:48:44.726Z,15.41
2018-03-17T01:51:11.522Z,15.65
2018-03-17T01:53:38.229Z,15.77
2018-03-17T01:56:04.959Z,15.56
2018-03-17T01:58:31.780Z,15.72
2018-03-17T02:00:58.622Z,15.55
2018-03-17T02:03:25.455Z,15.38
2018-03-17T02:05:52.214Z,15.57
2018-03-17T02:08:18.088Z,15.38
2018-03-17T02:10:43.938Z,15.52
2018-03-17T02:13:09.805Z,15.75
2018-03-17T02:15:35.674Z,15.60
2018-03-17T02:18:01.499Z,15.65
2018-03-17T02:20:27.440Z,15.47
2018-03-17T02:22:53.311Z,15.51
2018-03-17T02:25:19.176Z,15.35
2018-03-17T02:27:44.994Z,15.43
2018-03-17T02:30:10.908Z,15.26
2018-03-17T02:32:36.740Z,15.38
2018-03-17T02:35:02.590Z,15.51
2018-03-17T02:37:28.455Z,15.40
2018-03-17T02:39:54.281Z,15.51
2018-03-17T02:42:20.142Z,15.25
2018-03-17T02:44:45.974Z,15.24
2018-03-17T02:47:11.814Z,15.45
2018-03-17T02:49:37.663Z,15.58
2018-03-17T02:52:03.514Z,15.66
2018-03-17T02:54:29.339Z,15.52
2018-03-17T02:56:55.246Z,15.48
2018-03-17T02:59:21.867Z,15.00
2018-03-17T03:01:47.693Z,15.21
2018-03-17T03:04:13.536Z,15.41
2018-03-17T03:06:39.414Z,15.08
2018-03-17T03:09:05.225Z,15.41
2018-03-17T03:11:31.046Z,15.40
2018-03-17T03:13:56.867Z,15.10
2018-03-17T03:16:22.727Z,15.45
2018-03-17T03:18:48.562Z,15.11
2018-03-17T03:21:14.424Z,15.11
2018-03-17T03:23:40.251Z,15.24
2018-03-17T03:26:06.086Z,15.30
2018-03-17T03:28:31.911Z,15.49
2018-03-17T03:30:57.732Z,15.37
2018-03-17T03:33:23.555Z,15.33
2018-03-17T03:35:49.382Z,15.24
2018-03-17T03:38:15.205Z,15.22
2018-03-17T03:40:41.030Z,15.35
2018-03-17T03:43:06.859Z,15.25
2018-03-17T03:45:32.686Z,15.13
2018-03-17T03:47:58.515Z,15.45
2018-03-17T03:50:24.336Z,15.13
2018-03-17T03:52:50.155Z,15.20
2018-03-17T03:55:15.986Z,15.21
2018-03-17T03:57:41.825Z,15.26
2018-03-17T04:00:07.647Z,15.23
2018-03-17T04:02:33.478Z,15.25
2018-03-17T04:04:59.307Z,15.28
2018-03-17T04:07:25.122Z,15.19
2018-03-17T04:09:50.944Z,15.18
2018-03-17T04:12:16.789Z,15.44
2018-03-17T04:14:42.628Z,15.19
2018-03-17T04:17:08.462Z,15.01
2018-03-17T04:19:34.294Z,15.14
2018-03-17T04:22:00.139Z,15.28
2018-03-17T04:24:25.982Z,15.18
2018-03-17T04:26:51.885Z,15.11
2018-03-17T04:29:17.718Z,15.19
2018-03-17T04:31:43.575Z,15.20
2018-03-17T04:34:09.437Z,15.28
2018-03-17T04:36:35.303Z,15.04
2018-03-17T04:39:01.134Z,15.14
2018-03-17T04:41:26.973Z,15.29
2018-03-17T04:43:52.802Z,15.35
2018-03-17T04:46:18.625Z,15.43
2018-03-17T04:48:44.454Z,15.48
2018-03-17T04:51:10.310Z,15.05
2018-03-17T04:53:36.139Z,15.27
2018-03-17T04:56:01.998Z,15.27
2018-03-17T04:58:27.840Z,15.41
2018-03-17T05:00:53.672Z,15.43
2018-03-17T05:03:19.534Z,15.11
2018-03-17T05:05:45.375Z,15.26
2018-03-17T05:08:11.277Z,15.15
2018-03-17T05:10:37.109Z,15.09
2018-03-17T05:13:02.939Z,15.02
2018-03-17T05:15:28.770Z,15.12
2018-03-17T05:17:54.588Z,14.79
2018-03-17T05:20:20.428Z,15.02
2018-03-17T05:22:46.254Z,15.02
2018-03-17T05:25:12.120Z,15.08
2018-03-17T05:27:38.923Z,14.95
2018-03-17T05:30:04.795Z,14.91
2018-03-17T05:32:30.615Z,14.99
2018-03-17T05:34:56.482Z,15.06
2018-03-17T05:37:22.328Z,14.85
2018-03-17T05:39:48.210Z,14.86
2018-03-17T05:42:14.043Z,14.80
2018-03-17T05:44:39.870Z,15.13
2018-03-17T05:47:05.712Z,15.30
2018-03-17T05:49:31.575Z,14.99
2018-03-17T05:51:57.398Z,15.12
2018-03-17T05:54:23.223Z,15.28
2018-03-17T05:56:49.045Z,15.12
2018-03-17T05:59:14.863Z,14.99
2018-03-17T06:01:40.694Z,15.02
2018-03-17T06:04:06.557Z,15.20
2018-03-17T06:06:32.431Z,15.15
2018-03-17T06:08:58.270Z,15.20
2018-03-17T06:11:24.109Z,15.19
2018-03-17T06:13:50.804Z,15.27
2018-03-17T06:16:16.680Z,15.47
2018-03-17T06:18:42.539Z,15.23
2018-03-17T06:21:08.367Z,15.42
2018-03-17T06:23:34.210Z,15.22
2018-03-17T06:26:00.036Z,15.29
2018-03-17T06:28:25.878Z,15.12
2018-03-17T06:30:51.727Z,14.88
2018-03-17T06:33:17.543Z,15.17
2018-03-17T06:35:43.359Z,14.96
2018-03-17T06:38:09.187Z,14.92
2018-03-17T06:40:35.130Z,14.88
2018-03-17T06:43:00.971Z,15.01
2018-03-17T06:45:26.801Z,14.85
2018-03-17T06:47:52.641Z,14.85
2018-03-17T06:50:18.518Z,14.99
2018-03-17T06:52:44.372Z,14.80
2018-03-17T06:55:10.250Z,15.13
2018-03-17T06:57:36.058Z,14.97
2018-03-17T07:00:01.872Z,15.20
2018-03-17T07:02:27.692Z,15.03
2018-03-17T07:04:53.545Z,15.14
2018-03-17T07:07:19.383Z,15.15
2018-03-17T07:09:45.214Z,15.05
2018-03-17T07:12:11.054Z,15.06
2018-03-17T07:14:36.908Z,14.76
2018-03-17T07:17:02.763Z,15.01
2018-03-17T07:19:28.609Z,15.08
2018-03-17T07:21:54.449Z,14.96
2018-03-17T07:24:20.278Z,14.91
2018-03-17T07:26:46.110Z,15.04
2018-03-17T07:29:11.983Z,14.92
2018-03-17T07:31:37.803Z,14.83
2018-03-17T07:34:03.626Z,15.03
2018-03-17T07:36:29.455Z,14.97
2018-03-17T07:38:55.330Z,14.78
2018-03-17T07:41:21.190Z,14.97
2018-03-17T07:43:47.025Z,15.18
2018-03-17T07:46:12.848Z,14.93
2018-03-17T07:48:38.840Z,14.81
2018-03-17T07:51:04.672Z,15.09
2018-03-17T07:53:34.547Z,15.21
2018-03-17T07:56:00.408Z,15.23
2018-03-17T07:58:26.240Z,15.01
2018-03-17T08:00:52.120Z,14.97
2018-03-17T08:03:18.005Z,15.23
2018-03-17T08:05:43.920Z,15.07
2018-03-17T08:08:09.743Z,15.14
2018-03-17T08:10:35.612Z,15.05
2018-03-17T08:13:01.455Z,14.79
2018-03-17T08:15:27.324Z,14.94
2018-03-17T08:17:53.162Z,14.85
2018-03-17T08:20:19.035Z,14.79
2018-03-17T08:22:45.893Z,14.91
2018-03-17T08:25:11.723Z,15.01
2018-03-17T08:27:37.560Z,15.00
2018-03-17T08:30:03.446Z,15.05
2018-03-17T08:32:29.311Z,14.44
2018-03-17T08:34:55.175Z,15.09
2018-03-17T08:37:20.996Z,15.00
2018-03-17T08:39:46.823Z,15.23
2018-03-17T08:42:12.646Z,15.15
2018-03-17T08:44:38.460Z,15.22
2018-03-17T08:47:04.316Z,15.24
2018-03-17T08:49:30.185Z,15.20
2018-03-17T08:51:56.007Z,15.22
2018-03-17T08:54:21.855Z,15.46
2018-03-17T08:56:47.674Z,15.20
2018-03-17T08:59:13.546Z,15.21
2018-03-17T09:01:39.362Z,15.25
2018-03-17T09:04:05.183Z,15.37
2018-03-17T09:06:31.011Z,15.33
2018-03-17T09:08:56.834Z,15.48
2018-03-17T09:11:22.655Z,15.39
2018-03-17T09:13:48.487Z,15.23
2018-03-17T09:16:14.313Z,15.17
2018-03-17T09:18:40.175Z,15.03
2018-03-17T09:21:06.039Z,15.21
2018-03-17T09:23:31.870Z,15.07
2018-03-17T09:25:57.703Z,15.31
2018-03-17T09:28:23.528Z,15.27
2018-03-17T09:30:49.344Z,14.94
2018-03-17T09:33:15.178Z,15.23
2018-03-17T09:35:41.002Z,15.03
2018-03-17T09:38:06.822Z,14.86
2018-03-17T09:40:32.638Z,15.21
2018-03-17T09:42:58.467Z,14.97
2018-03-17T09:45:24.319Z,14.69
2018-03-17T09:47:50.153Z,14.90
2018-03-17T09:50:15.986Z,14.96
2018-03-17T09:52:41.812Z,15.02
2018-03-17T09:55:07.678Z,15.15
2018-03-17T09:57:33.510Z,15.13
2018-03-17T09:59:59.341Z,15.04
2018-03-17T10:02:25.210Z,15.17
2018-03-17T10:04:51.038Z,15.10
2018-03-17T10:07:16.895Z,14.96
2018-03-17T10:09:42.720Z,14.96
2018-03-17T10:12:08.549Z,15.09
2018-03-17T10:14:34.406Z,15.13
2018-03-17T10:17:00.230Z,15.29
2018-03-17T10:19:26.051Z,15.36
2018-03-17T10:21:51.870Z,15.22
2018-03-17T10:24:17.692Z,15.30
2018-03-17T10:26:43.539Z,15.39
2018-03-17T10:29:09.387Z,15.32
2018-03-17T10:31:35.259Z,15.29
2018-03-17T10:34:01.090Z,15.30
2018-03-17T10:36:26.919Z,15.43
2018-03-17T10:38:52.743Z,15.40
2018-03-17T10:41:18.575Z,15.29
2018-03-17T10:43:44.417Z,15.23
2018-03-17T10:46:10.256Z,15.15
2018-03-17T10:48:36.095Z,15.20
2018-03-17T10:51:02.036Z,15.41
2018-03-17T10:53:27.900Z,15.28
2018-03-17T10:55:53.760Z,15.29
2018-03-17T10:58:19.603Z,15.02
2018-03-17T11:00:46.280Z,15.22
2018-03-17T11:03:12.120Z,15.52
2018-03-17T11:05:37.960Z,15.26
2018-03-17T11:08:03.803Z,15.28
2018-03-17T11:10:29.655Z,15.43
2018-03-17T11:12:55.514Z,15.23
2018-03-17T11:15:21.480Z,15.39
2018-03-17T11:17:47.308Z,15.60
2018-03-17T11:20:13.175Z,15.46
2018-03-17T11:22:39.004Z,15.55
2018-03-17T11:25:04.827Z,15.14
2018-03-17T11:27:30.648Z,15.41
2018-03-17T11:29:56.468Z,15.17
2018-03-17T11:32:22.449Z,15.59
2018-03-17T11:34:48.310Z,15.47
2018-03-17T11:37:14.129Z,15.57
2018-03-17T11:39:40.919Z,15.42
2018-03-17T11:42:06.742Z,15.41
2018-03-17T11:44:32.557Z,15.22
2018-03-17T11:46:58.407Z,15.60
2018-03-17T11:49:24.244Z,15.61
2018-03-17T11:51:50.063Z,15.14
2018-03-17T11:54:15.920Z,15.46
2018-03-17T11:56:41.742Z,15.65
2018-03-17T11:59:07.608Z,15.70
2018-03-17T12:01:33.490Z,15.67
2018-03-17T12:04:00.189Z,15.33
2018-03-17T12:06:26.013Z,15.45
2018-03-17T12:08:51.840Z,15.52
2018-03-17T12:11:17.667Z,15.58
2018-03-17T12:13:43.482Z,15.49
2018-03-17T12:16:09.357Z,15.60
2018-03-17T12:18:35.225Z,15.57
2018-03-17T12:21:01.057Z,15.70
2018-03-17T12:23:26.916Z,15.65
2018-03-17T12:25:52.747Z,15.77
2018-03-17T12:28:18.607Z,15.65
2018-03-17T12:30:44.435Z,15.64
2018-03-17T12:33:10.298Z,15.66
2018-03-17T12:35:36.210Z,15.67
2018-03-17T12:38:02.042Z,15.61
2018-03-17T12:40:27.928Z,15.81
2018-03-17T12:42:53.743Z,15.64
2018-03-17T12:45:19.565Z,15.48
2018-03-17T12:47:45.393Z,15.38
2018-03-17T12:50:11.226Z,15.70
2018-03-17T12:52:37.098Z,15.50
2018-03-17T12:55:02.961Z,15.34
2018-03-17T12:57:28.782Z,15.35
2018-03-17T12:59:54.608Z,15.51
2018-03-17T13:02:20.439Z,15.55
2018-03-17T13:04:46.262Z,15.64
2018-03-17T13:07:12.096Z,15.66
2018-03-17T13:09:37.919Z,15.57
2018-03-17T13:12:03.752Z,15.60
2018-03-17T13:14:29.566Z,15.46
2018-03-17T13:16:55.394Z,15.45
2018-03-17T13:19:27.395Z,15.68
2018-03-17T13:21:53.206Z,15.24
2018-03-17T13:24:19.062Z,15.63
2018-03-17T13:26:51.100Z,15.58
2018-03-17T13:29:16.925Z,15.33
2018-03-17T13:31:42.755Z,15.27
2018-03-17T13:34:08.596Z,15.55
2018-03-17T13:36:40.580Z,15.54
2018-03-17T13:39:06.407Z,15.51
2018-03-17T13:41:32.226Z,15.58
2018-03-17T13:43:58.050Z,15.48
2018-03-17T13:46:23.906Z,15.41
2018-03-17T13:48:49.744Z,15.47
2018-03-17T13:51:15.582Z,15.36
2018-03-17T13:53:41.420Z,15.54
2018-03-17T13:56:07.250Z,15.46
2018-03-17T13:58:33.070Z,15.55
2018-03-17T14:00:58.896Z,15.50
2018-03-17T14:03:24.719Z,15.39
2018-03-17T14:05:50.563Z,15.57
2018-03-17T14:08:16.395Z,15.08
2018-03-17T14:10:42.214Z,15.25
2018-03-17T14:13:08.202Z,15.11
2018-03-17T14:15:34.063Z,15.39
2018-03-17T14:17:59.899Z,15.44
2018-03-17T14:20:25.723Z,15.26
2018-03-17T14:22:51.541Z,15.31
2018-03-17T14:25:17.368Z,15.33
2018-03-17T14:27:43.212Z,15.48
2018-03-17T14:30:09.043Z,15.60
2018-03-17T14:32:34.911Z,15.72
2018-03-17T14:35:00.732Z,15.45
2018-03-17T14:37:26.601Z,15.40
2018-03-17T14:39:52.427Z,15.59
2018-03-17T14:42:18.252Z,15.41
2018-03-17T14:44:44.085Z,15.40
2018-03-17T14:47:09.905Z,15.43
2018-03-17T14:49:35.732Z,15.52
2018-03-17T14:52:01.560Z,15.49
2018-03-17T14:54:27.389Z,15.37
2018-03-17T14:56:53.219Z,15.57
2018-03-17T14:59:19.040Z,15.63
2018-03-17T15:01:44.860Z,15.28
2018-03-17T15:04:10.691Z,15.17
2018-03-17T15:06:36.510Z,15.39
2018-03-17T15:09:02.419Z,15.26
2018-03-17T15:11:28.256Z,15.07
2018-03-17T15:13:54.985Z,15.33
2018-03-17T15:16:20.808Z,15.29
2018-03-17T15:18:46.664Z,15.49
2018-03-17T15:21:12.524Z,15.50
2018-03-17T15:23:38.396Z,15.61
2018-03-17T15:26:04.218Z,15.45
2018-03-17T15:28:30.060Z,15.42
2018-03-17T15:30:55.880Z,15.25
2018-03-17T15:33:21.770Z,15.33
2018-03-17T15:35:47.599Z,15.39
2018-03-17T15:38:13.452Z,15.50
2018-03-17T15:40:39.319Z,15.41
2018-03-17T15:43:05.179Z,15.53
2018-03-17T15:45:31.016Z,15.51
2018-03-17T15:47:56.882Z,15.48
2018-03-17T15:50:22.703Z,15.61
2018-03-17T15:52:48.555Z,15.40
2018-03-17T15:55:14.385Z,15.65
2018-03-17T15:57:40.206Z,15.61
2018-03-17T16:00:06.041Z,15.54
2018-03-17T16:02:31.901Z,15.70
2018-03-17T16:04:57.758Z,15.65
2018-03-17T16:07:23.592Z,15.54
2018-03-17T16:09:49.412Z,15.36
2018-03-17T16:12:15.233Z,15.29
2018-03-17T16:14:41.055Z,15.35
2018-03-17T16:17:13.883Z,15.41
2018-03-17T16:19:39.705Z,15.31
2018-03-17T16:22:05.531Z,15.39
2018-03-17T16:24:31.361Z,15.53
2018-03-17T16:26:57.226Z,15.38
2018-03-17T16:29:23.059Z,15.39
2018-03-17T16:31:48.928Z,15.42
2018-03-17T16:34:14.746Z,15.43
2018-03-17T16:36:40.598Z,15.46
2018-03-17T16:39:06.431Z,15.43
2018-03-17T16:41:32.254Z,15.45
2018-03-17T16:43:58.110Z,15.58
2018-03-17T16:46:23.956Z,15.61
2018-03-17T16:48:49.827Z,15.70
2018-03-17T16:51:15.673Z,15.70
2018-03-17T16:53:41.513Z,15.50
2018-03-17T16:56:07.344Z,15.51
2018-03-17T16:58:33.212Z,15.67
2018-03-17T17:00:59.031Z,15.65
2018-03-17T17:03:24.872Z,15.81
2018-03-17T17:05:50.705Z,15.76
2018-03-17T17:08:16.530Z,15.75
2018-03-17T17:10:42.365Z,15.83
2018-03-17T17:13:08.241Z,15.60
2018-03-17T17:15:34.100Z,15.48
2018-03-17T17:17:59.938Z,15.45
2018-03-17T17:20:25.768Z,15.52
2018-03-17T17:22:51.588Z,15.45
2018-03-17T17:25:17.448Z,15.60
2018-03-17T17:27:43.293Z,15.64
2018-03-17T17:30:09.112Z,15.59
2018-03-17T17:32:34.989Z,15.58
2018-03-17T17:35:00.786Z,15.53
2018-03-17T17:37:26.603Z,15.58
2018-03-17T17:39:52.424Z,15.41
2018-03-17T17:42:18.242Z,15.52
2018-03-17T17:44:44.074Z,15.49
2018-03-17T17:47:09.919Z,15.66
2018-03-17T17:49:35.739Z,15.60
2018-03-17T17:52:01.568Z,15.67
2018-03-17T17:54:27.387Z,15.51
2018-03-17T17:56:53.213Z,15.39
2018-03-17T17:59:19.034Z,15.29
2018-03-17T18:01:44.855Z,15.45
2018-03-17T18:04:10.677Z,15.23
2018-03-17T18:06:36.496Z,15.33
2018-03-17T18:09:02.407Z,15.56
2018-03-17T18:11:28.227Z,15.51
2018-03-17T18:13:54.039Z,15.31
2018-03-17T18:16:19.868Z,15.30
2018-03-17T18:18:45.693Z,15.38
2018-03-17T18:21:11.544Z,15.36
2018-03-17T18:23:37.375Z,15.65
2018-03-17T18:26:03.226Z,15.43
2018-03-17T18:28:29.055Z,15.25
2018-03-17T18:30:54.877Z,15.24
2018-03-17T18:33:20.702Z,15.25
2018-03-17T18:35:46.559Z,15.46
2018-03-17T18:38:12.383Z,15.07
2018-03-17T18:40:39.234Z,15.15
2018-03-17T18:43:05.099Z,15.26
2018-03-17T18:45:30.919Z,15.13
2018-03-17T18:47:56.740Z,15.19
2018-03-17T18:50:22.556Z,15.20
2018-03-17T18:52:48.371Z,15.34
2018-03-17T18:55:14.196Z,15.22
2018-03-17T18:57:40.022Z,15.41
2018-03-17T19:00:05.884Z,15.37
2018-03-17T19:02:31.704Z,15.42
2018-03-17T19:04:57.522Z,15.44
2018-03-17T19:07:23.383Z,15.53
2018-03-17T19:09:49.287Z,15.44
2018-03-17T19:12:15.164Z,15.52
2018-03-17T19:14:41.007Z,15.46
2018-03-17T19:17:06.831Z,15.28
2018-03-17T19:19:33.359Z,15.17
2018-03-17T19:21:59.188Z,15.26
2018-03-17T19:24:25.014Z,15.34
2018-03-17T19:26:50.890Z,15.49
2018-03-17T19:29:16.704Z,15.33
2018-03-17T19:31:42.528Z,15.42
2018-03-17T19:34:08.436Z,15.42
2018-03-17T19:36:34.274Z,15.10
2018-03-17T19:39:00.151Z,15.29
2018-03-17T19:41:26.015Z,15.45
2018-03-17T19:43:51.857Z,15.06
2018-03-17T19:46:17.703Z,15.42
2018-03-17T19:48:43.610Z,15.36
2018-03-17T19:51:09.452Z,15.16
2018-03-17T19:53:35.335Z,15.17
2018-03-17T19:56:02.090Z,15.28
2018-03-17T19:58:27.973Z,15.28
2018-03-17T20:00:54.627Z,15.29
2018-03-17T20:03:20.502Z,15.18
2018-03-17T20:05:46.356Z,15.14
2018-03-17T20:08:12.196Z,15.35
2018-03-17T20:10:38.040Z,15.07
2018-03-17T20:13:03.896Z,15.25
2018-03-17T20:15:29.739Z,15.37
2018-03-17T20:17:55.586Z,15.52
2018-03-17T20:20:21.467Z,15.36
2018-03-17T20:22:48.182Z,15.22
2018-03-17T20:25:14.847Z,15.39
2018-03-17T20:27:41.788Z,15.26
2018-03-17T20:30:07.796Z,15.05
2018-03-17T20:32:33.763Z,15.22
2018-03-17T20:34:59.658Z,15.40
2018-03-17T20:37:26.608Z,15.43
2018-03-17T20:39:52.442Z,15.53
2018-03-17T20:42:18.280Z,15.47
2018-03-17T20:44:44.132Z,15.58
2018-03-17T20:47:09.977Z,15.47
2018-03-17T20:49:35.827Z,15.43
2018-03-17T20:52:01.664Z,15.32
2018-03-17T20:54:27.503Z,15.34
2018-03-17T20:56:53.889Z,15.31
2018-03-17T20:59:20.568Z,15.50
2018-03-17T21:01:46.440Z,15.46
2018-03-17T21:04:12.331Z,15.48
2018-03-17T21:06:38.207Z,15.31
2018-03-17T21:09:04.071Z,15.47
2018-03-17T21:11:29.906Z,15.50
2018-03-17T21:13:55.798Z,15.46
2018-03-17T21:16:21.635Z,15.05
2018-03-17T21:18:47.471Z,15.26
2018-03-17T21:21:13.306Z,15.35
2018-03-17T21:23:39.133Z,15.35
2018-03-17T21:26:05.029Z,15.43
2018-03-17T21:28:30.855Z,15.46
2018-03-17T21:30:56.738Z,15.28
2018-03-17T21:33:22.576Z,15.43
2018-03-17T21:35:48.406Z,15.26
2018-03-17T21:38:14.275Z,15.22
2018-03-17T21:40:40.142Z,15.31
2018-03-17T21:43:06.027Z,15.28
2018-03-17T21:45:31.843Z,15.48
2018-03-17T21:47:57.661Z,15.17
2018-03-17T21:50:23.500Z,15.50
2018-03-17T21:52:49.323Z,14.97
2018-03-17T21:55:15.139Z,14.70
2018-03-17T21:57:40.998Z,14.99
2018-03-17T22:00:06.851Z,15.17
2018-03-17T22:02:32.671Z,14.68
2018-03-17T22:04:58.536Z,14.80
2018-03-17T22:07:24.331Z,15.22
2018-03-17T22:09:50.183Z,15.03
2018-03-17T22:12:16.026Z,14.97
2018-03-17T22:14:41.843Z,15.04
2018-03-17T22:17:07.650Z,15.23
2018-03-17T22:19:33.462Z,15.05
2018-03-17T22:21:59.278Z,15.13
2018-03-17T22:24:25.090Z,15.13
2018-03-17T22:26:50.948Z,15.27
2018-03-17T22:29:16.810Z,14.94
2018-03-17T22:31:42.618Z,15.10
2018-03-17T22:34:08.430Z,14.81
2018-03-17T22:36:34.238Z,14.77
2018-03-17T22:39:00.043Z,14.95
2018-03-17T22:41:25.862Z,14.98
2018-03-17T22:43:51.708Z,14.82
2018-03-17T22:46:17.517Z,15.11
2018-03-17T22:48:43.327Z,14.80
2018-03-17T22:51:09.138Z,15.22
2018-03-17T22:53:34.958Z,15.02
2018-03-17T22:56:00.775Z,15.01
2018-03-17T22:58:27.611Z,15.09
2018-03-17T23:00:53.458Z,15.08
2018-03-17T23:03:19.267Z,15.38
2018-03-17T23:05:45.124Z,15.21
2018-03-17T23:08:10.944Z,15.22
2018-03-17T23:10:36.789Z,15.23
2018-03-17T23:13:02.602Z,15.02
2018-03-17T23:15:28.426Z,15.14
2018-03-17T23:17:54.312Z,14.99
2018-03-17T23:20:20.134Z,15.07
2018-03-17T23:22:45.991Z,15.09
2018-03-17T23:25:11.806Z,15.21
2018-03-17T23:27:37.630Z,15.01
2018-03-17T23:30:03.521Z,15.18
2018-03-17T23:32:29.423Z,14.82
2018-03-17T23:34:55.232Z,15.07
2018-03-17T23:37:21.056Z,15.04
2018-03-17T23:39:46.886Z,15.10
2018-03-17T23:42:12.703Z,15.18
2018-03-17T23:44:38.533Z,15.17
2018-03-17T23:47:04.443Z,15.04
2018-03-17T23:49:30.274Z,15.14
2018-03-17T23:51:56.147Z,15.13
2018-03-17T23:54:21.978Z,15.31
2018-03-17T23:56:47.851Z,15.05
2018-03-17T23:59:13.728Z,15.08
